createdAt,value
2022-08-26T00:01:54.115Z,6.07
2022-08-26T00:04:23.444Z,6.63
2022-08-26T00:06:51.580Z,6.78
2022-08-26T00:09:21.554Z,7.65
2022-08-26T00:11:49.908Z,6.03
2022-08-26T00:14:18.800Z,6.65
2022-08-26T00:16:47.737Z,6.45
2022-08-26T00:19:17.088Z,6.57
2022-08-26T00:21:44.912Z,6.57
2022-08-26T00:24:13.274Z,6.35
2022-08-26T00:26:42.529Z,6.30
2022-08-26T00:29:10.708Z,6.53
2022-08-26T00:31:39.025Z,5.95
2022-08-26T00:34:09.378Z,6.55
2022-08-26T00:36:37.655Z,6.15
2022-08-26T00:39:08.068Z,6.80
2022-08-26T00:41:36.524Z,6.30
2022-08-26T00:44:06.146Z,6.78
2022-08-26T00:46:37.669Z,6.38
2022-08-26T00:49:12.134Z,6.55
2022-08-26T00:51:45.386Z,6.55
2022-08-26T00:54:13.838Z,6.78
2022-08-26T00:56:47.493Z,6.43
2022-08-26T00:59:18.532Z,5.75
2022-08-26T01:01:46.397Z,6.70
2022-08-26T01:04:18.863Z,6.38
2022-08-26T01:06:47.342Z,5.68
2022-08-26T01:09:15.502Z,6.32
2022-08-26T01:11:43.269Z,5.97
2022-08-26T01:14:11.865Z,6.82
2022-08-26T01:16:42.305Z,6.45
2022-08-26T01:19:25.023Z,7.13
2022-08-26T01:21:58.145Z,6.05
2022-08-26T01:24:29.858Z,6.30
2022-08-26T01:27:01.605Z,6.35
2022-08-26T01:29:31.712Z,6.68
2022-08-26T01:32:00.086Z,6.25
2022-08-26T01:34:31.396Z,6.43
2022-08-26T01:37:06.775Z,6.20
2022-08-26T01:39:37.163Z,7.22
2022-08-26T01:42:10.498Z,6.30
2022-08-26T01:44:44.897Z,6.20
2022-08-26T01:47:15.633Z,6.10
2022-08-26T01:49:45.597Z,6.82
2022-08-26T01:52:18.278Z,7.07
2022-08-26T01:54:51.523Z,6.63
2022-08-26T01:57:20.125Z,8.05
2022-08-26T01:59:49.179Z,6.15
2022-08-26T02:02:17.912Z,7.00
2022-08-26T02:04:50.077Z,6.15
2022-08-26T02:07:20.587Z,6.40
2022-08-26T02:09:51.267Z,6.35
2022-08-26T02:12:20.854Z,6.80
2022-08-26T02:14:53.173Z,6.55
2022-08-26T02:17:25.961Z,6.75
2022-08-26T02:19:54.197Z,6.57
2022-08-26T02:22:24.700Z,6.07
2022-08-26T02:24:56.032Z,6.57
2022-08-26T02:27:26.038Z,6.43
2022-08-26T02:29:59.906Z,6.45
2022-08-26T02:32:29.084Z,6.15
2022-08-26T02:34:56.940Z,6.68
2022-08-26T02:37:28.940Z,6.68
2022-08-26T02:39:58.178Z,6.28
2022-08-26T02:42:25.897Z,6.90
2022-08-26T02:44:54.598Z,7.03
2022-08-26T02:47:24.911Z,7.45
2022-08-26T02:49:53.113Z,7.22
2022-08-26T02:52:21.682Z,7.60
2022-08-26T02:54:49.423Z,7.43
2022-08-26T02:57:19.527Z,7.50
2022-08-26T02:59:50.157Z,6.70
2022-08-26T03:02:18.111Z,7.18
2022-08-26T03:05:00.035Z,6.65
2022-08-26T03:07:29.930Z,6.60
2022-08-26T03:09:57.855Z,7.80
2022-08-26T03:12:27.125Z,6.53
2022-08-26T03:14:54.843Z,7.20
2022-08-26T03:17:22.621Z,7.03
2022-08-26T03:19:56.970Z,6.45
2022-08-26T03:22:25.830Z,6.72
2022-08-26T03:24:54.898Z,7.00
2022-08-26T03:27:22.629Z,6.55
2022-08-26T03:30:09.003Z,6.13
2022-08-26T03:32:39.596Z,7.20
2022-08-26T03:35:09.918Z,6.03
2022-08-26T03:37:37.846Z,7.47
2022-08-26T03:40:08.966Z,6.90
2022-08-26T03:42:37.698Z,6.97
2022-08-26T03:45:10.439Z,7.07
2022-08-26T03:47:38.264Z,7.25
2022-08-26T03:50:07.364Z,6.90
2022-08-26T03:52:39.640Z,7.15
2022-08-26T03:55:11.981Z,7.95
2022-08-26T03:57:39.873Z,7.57
2022-08-26T04:00:13.683Z,7.38
2022-08-26T04:02:41.420Z,7.20
2022-08-26T04:05:09.436Z,7.38
2022-08-26T04:07:37.358Z,7.63
2022-08-26T04:10:06.021Z,7.07
2022-08-26T04:12:33.791Z,7.45
2022-08-26T04:15:01.416Z,7.43
2022-08-26T04:17:31.917Z,7.20
2022-08-26T04:19:59.882Z,7.25
2022-08-26T04:22:28.229Z,7.28
2022-08-26T04:24:57.185Z,8.27
2022-08-26T04:27:25.208Z,8.10
2022-08-26T04:29:55.348Z,7.60
2022-08-26T04:32:23.444Z,8.02
2022-08-26T04:34:52.483Z,7.45
2022-08-26T04:37:20.693Z,7.60
2022-08-26T04:39:52.110Z,7.47
2022-08-26T04:42:25.932Z,6.63
2022-08-26T04:44:54.247Z,7.35
2022-08-26T04:47:22.522Z,6.75
2022-08-26T04:49:55.496Z,7.50
2022-08-26T04:52:26.444Z,7.45
2022-08-26T04:54:56.045Z,6.97
2022-08-26T04:57:23.833Z,7.53
2022-08-26T04:59:51.482Z,7.15
2022-08-26T05:02:19.345Z,6.80
2022-08-26T05:04:47.020Z,7.15
2022-08-26T05:07:17.611Z,6.82
2022-08-26T05:09:45.454Z,6.80
2022-08-26T05:12:13.248Z,8.02
2022-08-26T05:14:41.811Z,7.22
2022-08-26T05:17:13.965Z,8.10
2022-08-26T05:19:43.178Z,7.75
2022-08-26T05:22:13.072Z,7.38
2022-08-26T05:24:43.248Z,7.50
2022-08-26T05:27:11.490Z,7.55
2022-08-26T05:29:39.800Z,6.70
2022-08-26T05:32:07.882Z,7.15
2022-08-26T05:34:36.312Z,8.73
2022-08-26T05:37:07.854Z,7.68
2022-08-26T05:39:35.557Z,7.80
2022-08-26T05:42:05.689Z,7.90
2022-08-26T05:44:53.795Z,6.85
2022-08-26T05:47:21.106Z,7.57
2022-08-26T05:49:51.556Z,7.68
2022-08-26T05:52:20.015Z,7.90
2022-08-26T05:54:48.339Z,6.72
2022-08-26T05:57:17.562Z,6.65
2022-08-26T05:59:46.290Z,8.27
2022-08-26T06:02:14.008Z,7.88
2022-08-26T06:04:42.098Z,9.18
2022-08-26T06:07:11.640Z,8.25
2022-08-26T06:09:41.438Z,8.02
2022-08-26T06:12:09.796Z,8.18
2022-08-26T06:14:38.891Z,8.32
2022-08-26T06:17:09.615Z,9.23
2022-08-26T06:19:37.354Z,8.27
2022-08-26T06:22:29.077Z,8.18
2022-08-26T06:25:14.428Z,8.05
2022-08-26T06:27:42.132Z,6.70
2022-08-26T06:30:12.762Z,7.72
2022-08-26T06:32:40.479Z,8.77
2022-08-26T06:35:12.023Z,7.72
2022-08-26T06:37:40.477Z,6.85
2022-08-26T06:40:10.055Z,9.23
2022-08-26T06:42:39.353Z,7.70
2022-08-26T06:45:08.375Z,7.40
2022-08-26T06:47:38.054Z,7.22
2022-08-26T06:50:06.531Z,6.38
2022-08-26T06:52:34.391Z,6.70
2022-08-26T06:55:02.482Z,6.82
2022-08-26T06:57:32.957Z,7.05
2022-08-26T07:00:04.008Z,6.30
2022-08-26T07:02:32.034Z,6.38
2022-08-26T07:05:01.247Z,5.90
2022-08-26T07:07:29.518Z,6.70
2022-08-26T07:09:57.227Z,6.93
2022-08-26T07:12:26.045Z,6.47
2022-08-26T07:14:54.015Z,6.40
2022-08-26T07:17:21.868Z,6.78
2022-08-26T07:19:53.622Z,6.90
2022-08-26T07:22:22.796Z,6.60
2022-08-26T07:24:52.134Z,7.68
2022-08-26T07:27:19.844Z,6.82
2022-08-26T07:29:48.939Z,7.72
2022-08-26T07:32:20.339Z,7.03
2022-08-26T07:34:50.519Z,7.47
2022-08-26T07:37:18.287Z,7.60
2022-08-26T07:39:48.276Z,7.05
2022-08-26T07:42:18.980Z,7.32
2022-08-26T07:44:47.664Z,6.88
2022-08-26T07:47:25.168Z,6.72
2022-08-26T07:49:54.904Z,7.20
2022-08-26T07:52:26.676Z,7.22
2022-08-26T07:54:56.633Z,7.15
2022-08-26T07:57:24.507Z,8.02
2022-08-26T07:59:54.938Z,7.40
2022-08-26T08:02:23.644Z,7.50
2022-08-26T08:04:51.712Z,7.15
2022-08-26T08:07:20.169Z,7.40
2022-08-26T08:09:49.460Z,7.63
2022-08-26T08:12:19.625Z,7.05
2022-08-26T08:14:49.918Z,7.43
2022-08-26T08:17:17.782Z,8.60
2022-08-26T08:19:46.913Z,7.80
2022-08-26T08:22:17.953Z,7.28
2022-08-26T08:24:49.682Z,7.65
2022-08-26T08:27:23.486Z,6.82
2022-08-26T08:29:54.918Z,7.78
2022-08-26T08:32:23.252Z,7.78
2022-08-26T08:34:51.020Z,6.82
2022-08-26T08:37:18.869Z,8.02
2022-08-26T08:39:46.509Z,7.88
2022-08-26T08:42:39.734Z,7.00
2022-08-26T08:45:11.380Z,7.22
2022-08-26T08:47:42.085Z,8.10
2022-08-26T08:50:18.607Z,7.53
2022-08-26T08:52:51.659Z,7.82
2022-08-26T08:55:19.523Z,8.45
2022-08-26T08:58:02.819Z,8.38
2022-08-26T09:00:39.820Z,7.88
2022-08-26T09:03:17.639Z,8.50
2022-08-26T09:05:51.296Z,8.88
2022-08-26T09:08:22.742Z,7.78
2022-08-26T09:10:54.055Z,7.88
2022-08-26T09:13:25.226Z,8.98
2022-08-26T09:16:04.371Z,9.32
2022-08-26T09:18:51.022Z,8.57
2022-08-26T09:21:20.554Z,8.18
2022-08-26T09:23:51.921Z,8.45
2022-08-26T09:26:26.011Z,7.70
2022-08-26T09:28:59.958Z,6.65
2022-08-26T09:31:29.999Z,9.23
2022-08-26T09:34:17.256Z,8.32
2022-08-26T09:36:48.506Z,9.52
2022-08-26T09:39:34.825Z,8.32
2022-08-26T09:42:11.195Z,7.90
2022-08-26T09:44:59.426Z,10.35
2022-08-26T09:47:31.555Z,8.32
2022-08-26T09:50:04.604Z,10.27
2022-08-26T09:52:37.462Z,8.90
2022-08-26T09:55:13.551Z,7.70
2022-08-26T09:57:51.234Z,8.88
2022-08-26T10:00:38.414Z,8.98
2022-08-26T10:03:10.748Z,8.00
2022-08-26T10:05:43.988Z,7.55
2022-08-26T10:08:23.759Z,8.02
2022-08-26T10:10:53.366Z,7.82
2022-08-26T10:13:26.373Z,8.10
2022-08-26T10:16:02.500Z,8.80
2022-08-26T10:18:34.744Z,9.75
2022-08-26T10:21:07.388Z,8.00
2022-08-26T10:26:14.638Z,9.30
2022-08-26T10:28:46.469Z,8.57
2022-08-26T10:31:29.015Z,8.23
2022-08-26T10:34:00.338Z,8.45
2022-08-26T10:37:14.151Z,8.15
2022-08-26T10:39:49.035Z,8.13
2022-08-26T10:42:23.017Z,8.15
2022-08-26T10:44:58.513Z,7.35
2022-08-26T10:47:35.537Z,7.22
2022-08-26T10:50:04.598Z,7.80
2022-08-26T10:52:50.236Z,7.30
2022-08-26T10:55:24.129Z,7.70
2022-08-26T10:58:00.166Z,7.57
2022-08-26T11:00:58.126Z,7.88
2022-08-26T11:03:34.673Z,8.20
2022-08-26T11:06:23.387Z,7.63
2022-08-26T11:08:52.700Z,8.13
2022-08-26T11:11:57.756Z,7.78
2022-08-26T11:14:53.678Z,8.48
2022-08-26T11:18:02.355Z,7.97
2022-08-26T11:20:39.210Z,8.65
2022-08-26T11:23:50.502Z,8.25
2022-08-26T11:26:35.778Z,8.98
2022-08-26T11:29:13.449Z,8.13
2022-08-26T11:31:57.164Z,9.20
2022-08-26T11:34:57.912Z,8.27
2022-08-26T11:37:33.358Z,8.68
2022-08-26T11:40:03.970Z,8.57
2022-08-26T11:42:39.514Z,8.82
2022-08-26T11:45:19.327Z,8.35
2022-08-26T11:47:49.335Z,8.95
2022-08-26T11:50:21.156Z,8.70
2022-08-26T11:52:55.410Z,8.10
2022-08-26T11:55:24.360Z,8.80
2022-08-26T11:57:55.402Z,10.57
2022-08-26T12:00:25.915Z,8.20
2022-08-26T12:02:55.608Z,8.68
2022-08-26T12:05:29.583Z,9.05
2022-08-26T12:08:06.996Z,8.13
2022-08-26T12:10:35.792Z,8.95
2022-08-26T12:13:06.208Z,8.95
2022-08-26T12:15:37.629Z,8.43
2022-08-26T12:18:28.983Z,7.95
2022-08-26T12:21:00.773Z,9.27
2022-08-26T12:23:41.458Z,8.48
2022-08-26T12:26:14.109Z,7.93
2022-08-26T12:28:46.967Z,8.63
2022-08-26T12:31:23.561Z,8.23
2022-08-26T12:33:52.095Z,8.70
2022-08-26T12:36:24.562Z,8.52
2022-08-26T12:38:57.683Z,8.65
2022-08-26T12:41:41.477Z,8.90
2022-08-26T12:44:09.447Z,9.13
2022-08-26T12:46:37.724Z,8.50
2022-08-26T12:49:05.780Z,8.60
2022-08-26T12:51:35.334Z,8.63
2022-08-26T12:54:06.787Z,8.95
2022-08-26T12:56:39.458Z,10.00
2022-08-26T12:59:20.107Z,9.40
2022-08-26T13:01:49.497Z,8.82
2022-08-26T13:04:35.236Z,9.23
2022-08-26T13:07:24.167Z,9.10
2022-08-26T13:09:55.311Z,8.70
2022-08-26T13:12:32.144Z,9.02
2022-08-26T13:15:01.685Z,8.75
2022-08-26T13:17:31.037Z,8.77
2022-08-26T13:20:04.062Z,8.23
2022-08-26T13:22:32.733Z,9.20
2022-08-26T13:25:01.767Z,8.30
2022-08-26T13:27:29.719Z,8.43
2022-08-26T13:29:59.131Z,8.48
2022-08-26T13:32:27.824Z,8.70
2022-08-26T13:34:57.194Z,7.93
2022-08-26T13:37:34.663Z,8.65
2022-08-26T13:40:06.869Z,8.68
2022-08-26T13:42:35.022Z,9.20
2022-08-26T13:45:03.482Z,9.40
2022-08-26T13:47:31.478Z,10.48
2022-08-26T13:49:59.360Z,9.50
2022-08-26T13:52:30.563Z,9.60
2022-08-26T13:55:00.640Z,10.65
2022-08-26T13:57:30.790Z,9.93
2022-08-26T14:00:00.171Z,9.48
2022-08-26T14:02:28.822Z,9.40
2022-08-26T14:04:56.767Z,9.55
2022-08-26T14:07:26.236Z,9.45
2022-08-26T14:09:53.921Z,9.70
2022-08-26T14:12:21.773Z,8.85
2022-08-26T14:14:51.200Z,10.40
2022-08-26T14:17:21.762Z,8.95
2022-08-26T14:19:51.249Z,9.35
2022-08-26T14:22:21.819Z,9.18
2022-08-26T14:24:50.302Z,10.93
2022-08-26T14:27:18.153Z,9.50
2022-08-26T14:29:45.849Z,9.60
2022-08-26T14:32:21.028Z,10.27
2022-08-26T14:34:50.602Z,9.75
2022-08-26T14:37:18.854Z,9.25
2022-08-26T14:39:47.379Z,10.38
2022-08-26T14:42:18.354Z,9.23
2022-08-26T14:44:49.575Z,9.50
2022-08-26T14:47:18.705Z,9.55
2022-08-26T14:49:46.744Z,10.07
2022-08-26T14:52:14.899Z,9.52
2022-08-26T14:54:41.646Z,9.95
2022-08-26T14:57:11.996Z,8.55
2022-08-26T14:59:41.630Z,7.30
2022-08-26T15:02:13.707Z,8.50
2022-08-26T15:04:51.467Z,8.00
2022-08-26T15:07:19.264Z,7.22
2022-08-26T15:09:47.501Z,6.75
2022-08-26T15:12:17.552Z,8.07
2022-08-26T15:14:45.181Z,7.47
2022-08-26T15:17:12.996Z,7.88
2022-08-26T15:19:40.748Z,7.45
2022-08-26T15:22:10.332Z,7.55
2022-08-26T15:24:38.056Z,7.10
2022-08-26T15:27:05.861Z,7.50
2022-08-26T15:29:36.288Z,8.07
2022-08-26T15:32:04.936Z,8.10
2022-08-26T15:34:32.957Z,7.15
2022-08-26T15:37:00.794Z,6.35
2022-08-26T15:39:30.397Z,6.05
2022-08-26T15:41:59.645Z,7.15
2022-08-26T15:44:27.823Z,6.13
2022-08-26T15:46:58.669Z,6.57
2022-08-26T15:49:27.931Z,8.07
2022-08-26T15:51:55.646Z,6.53
2022-08-26T15:54:24.782Z,6.78
2022-08-26T15:56:53.894Z,6.78
2022-08-26T15:59:23.012Z,6.05
2022-08-26T16:01:51.823Z,6.80
2022-08-26T16:04:20.199Z,6.60
2022-08-26T16:06:50.221Z,6.50
2022-08-26T16:09:18.733Z,6.30
2022-08-26T16:11:46.569Z,6.15
2022-08-26T16:14:15.808Z,5.70
2022-08-26T16:16:43.780Z,6.60
2022-08-26T16:19:12.375Z,6.13
2022-08-26T16:21:41.200Z,6.00
2022-08-26T16:24:09.537Z,5.60
2022-08-26T16:26:39.185Z,6.13
2022-08-26T16:29:09.076Z,5.70
2022-08-26T16:31:38.754Z,5.45
2022-08-26T16:34:07.267Z,4.70
2022-08-26T16:36:35.861Z,3.97
2022-08-26T16:39:04.760Z,3.90
2022-08-26T16:41:33.762Z,5.10
2022-08-26T16:44:01.600Z,4.13
2022-08-26T16:46:29.656Z,4.70
2022-08-26T16:49:01.567Z,4.78
2022-08-26T16:51:29.579Z,4.40
2022-08-26T16:53:58.778Z,4.20
2022-08-26T16:56:33.799Z,4.47
2022-08-26T16:59:02.595Z,3.95
2022-08-26T17:01:30.772Z,3.90
2022-08-26T17:03:59.933Z,4.63
2022-08-26T17:06:27.724Z,4.05
2022-08-26T17:08:58.669Z,4.82
2022-08-26T17:11:26.439Z,5.70
2022-08-26T17:13:54.283Z,7.30
2022-08-26T17:16:26.370Z,7.13
2022-08-26T17:18:55.781Z,8.35
2022-08-26T17:21:25.237Z,8.05
2022-08-26T17:23:53.753Z,7.43
2022-08-26T17:26:21.792Z,7.93
2022-08-26T17:28:50.088Z,8.82
2022-08-26T17:31:18.424Z,8.55
2022-08-26T17:33:50.277Z,9.38
2022-08-26T17:36:21.485Z,8.57
2022-08-26T17:38:52.455Z,9.98
2022-08-26T17:41:22.204Z,7.63
2022-08-26T17:43:51.429Z,8.85
2022-08-26T17:46:19.388Z,7.60
2022-08-26T17:48:48.302Z,8.02
2022-08-26T17:51:19.369Z,5.60
2022-08-26T17:53:48.667Z,6.32
2022-08-26T17:56:21.110Z,6.18
2022-08-26T17:58:51.806Z,6.78
2022-08-26T18:01:20.745Z,6.10
2022-08-26T18:03:49.191Z,6.25
2022-08-26T18:06:17.031Z,6.30
2022-08-26T18:08:45.075Z,6.25
2022-08-26T18:11:14.994Z,7.55
2022-08-26T18:13:47.499Z,6.68
2022-08-26T18:16:17.216Z,6.63
2022-08-26T18:18:45.434Z,7.00
2022-08-26T18:21:15.594Z,7.43
2022-08-26T18:23:43.742Z,8.93
2022-08-26T18:26:17.771Z,9.27
2022-08-26T18:28:46.990Z,8.25
2022-08-26T18:31:15.205Z,9.70
2022-08-26T18:33:44.066Z,8.95
2022-08-26T18:36:17.982Z,9.48
2022-08-26T18:38:46.167Z,8.88
2022-08-26T18:41:14.274Z,9.40
2022-08-26T18:43:42.175Z,9.88
2022-08-26T18:46:11.940Z,10.20
2022-08-26T18:48:41.471Z,10.73
2022-08-26T18:51:10.223Z,10.40
2022-08-26T18:53:42.005Z,10.88
2022-08-26T18:56:09.862Z,10.18
2022-08-26T18:58:37.649Z,10.05
2022-08-26T19:01:05.884Z,10.63
2022-08-26T19:03:35.261Z,10.88
2022-08-26T19:06:02.989Z,11.35
2022-08-26T19:08:31.014Z,10.23
2022-08-26T19:11:00.625Z,11.25
2022-08-26T19:13:28.385Z,11.40
2022-08-26T19:15:56.395Z,11.40
2022-08-26T19:18:24.372Z,12.00
2022-08-26T19:20:53.847Z,10.65
2022-08-26T19:23:32.500Z,10.60
2022-08-26T19:26:03.471Z,9.93
2022-08-26T19:28:32.592Z,10.80
2022-08-26T19:31:00.876Z,10.95
2022-08-26T19:33:29.223Z,10.80
2022-08-26T19:36:05.911Z,11.07
2022-08-26T19:38:35.130Z,9.65
2022-08-26T19:41:03.214Z,10.75
2022-08-26T19:43:31.079Z,10.23
2022-08-26T19:46:00.706Z,10.23
2022-08-26T19:48:29.799Z,11.00
2022-08-26T19:50:59.360Z,11.70
2022-08-26T19:53:27.452Z,10.43
2022-08-26T19:55:55.218Z,10.07
2022-08-26T19:58:23.423Z,10.10
2022-08-26T20:00:51.611Z,10.02
2022-08-26T20:03:19.550Z,9.55
2022-08-26T20:05:47.406Z,9.73
2022-08-26T20:08:22.438Z,10.07
2022-08-26T20:10:51.334Z,9.77
2022-08-26T20:13:19.645Z,9.90
2022-08-26T20:15:47.913Z,8.80
2022-08-26T20:18:29.656Z,9.98
2022-08-26T20:21:14.962Z,9.93
2022-08-26T20:23:45.771Z,9.52
2022-08-26T20:26:13.665Z,9.68
2022-08-26T20:28:41.534Z,9.85
2022-08-26T20:31:09.595Z,10.02
2022-08-26T20:33:46.451Z,9.80
2022-08-26T20:36:16.028Z,10.45
2022-08-26T20:38:46.015Z,10.82
2022-08-26T20:41:14.290Z,11.68
2022-08-26T20:43:43.571Z,11.95
2022-08-26T20:46:17.262Z,11.98
2022-08-26T20:48:47.047Z,12.40
2022-08-26T20:51:15.110Z,12.05
2022-08-26T20:53:44.168Z,12.30
2022-08-26T20:56:15.609Z,12.70
2022-08-26T20:58:43.671Z,11.95
2022-08-26T21:01:18.874Z,12.55
2022-08-26T21:03:47.243Z,11.43
2022-08-26T21:06:15.367Z,11.30
2022-08-26T21:08:43.478Z,11.93
2022-08-26T21:11:15.094Z,12.15
2022-08-26T21:14:04.028Z,11.45
2022-08-26T21:16:31.744Z,12.65
2022-08-26T21:19:00.535Z,10.70
2022-08-26T21:21:28.677Z,12.85
2022-08-26T21:23:57.338Z,11.70
2022-08-26T21:26:26.443Z,12.43
2022-08-26T21:28:54.812Z,10.88
2022-08-26T21:31:26.463Z,11.55
2022-08-26T21:33:54.512Z,12.00
2022-08-26T21:36:22.203Z,12.15
2022-08-26T21:38:49.914Z,11.95
2022-08-26T21:41:20.811Z,11.95
2022-08-26T21:43:51.365Z,12.18
2022-08-26T21:46:24.556Z,11.95
2022-08-26T21:48:55.366Z,11.80
2022-08-26T21:51:25.387Z,10.18
2022-08-26T21:53:53.782Z,10.57
2022-08-26T21:56:22.651Z,10.93
2022-08-26T21:58:52.434Z,10.10
2022-08-26T22:01:22.657Z,10.50
2022-08-26T22:03:52.282Z,9.60
2022-08-26T22:06:22.586Z,11.00
2022-08-26T22:08:50.564Z,10.13
2022-08-26T22:11:19.309Z,9.90
2022-08-26T22:13:48.539Z,9.88
2022-08-26T22:16:17.937Z,8.90
2022-08-26T22:18:46.406Z,8.57
2022-08-26T22:21:16.475Z,8.50
2022-08-26T22:23:45.345Z,8.63
2022-08-26T22:26:25.302Z,8.35
2022-08-26T22:28:58.646Z,8.32
2022-08-26T22:31:37.795Z,8.10
2022-08-26T22:34:09.102Z,8.07
2022-08-26T22:36:42.953Z,7.55
2022-08-26T22:39:13.458Z,8.98
2022-08-26T22:41:42.038Z,9.32
2022-08-26T22:44:10.294Z,7.97
2022-08-26T22:46:39.477Z,8.43
2022-08-26T22:49:09.475Z,7.78
2022-08-26T22:51:37.302Z,8.38
2022-08-26T22:54:05.716Z,8.45
2022-08-26T22:56:33.536Z,7.88
2022-08-26T22:59:01.211Z,7.88
2022-08-26T23:01:29.023Z,7.85
2022-08-26T23:04:06.746Z,8.52
2022-08-26T23:06:36.469Z,7.00
2022-08-26T23:09:04.882Z,7.93
2022-08-26T23:11:32.959Z,7.80
2022-08-26T23:14:06.221Z,7.80
2022-08-26T23:16:37.878Z,7.65
2022-08-26T23:19:09.028Z,7.53
2022-08-26T23:21:36.923Z,7.47
2022-08-26T23:24:05.118Z,7.60
2022-08-26T23:26:33.005Z,7.55
2022-08-26T23:29:00.838Z,7.78
2022-08-26T23:31:28.673Z,8.43
2022-08-26T23:34:14.191Z,8.35
2022-08-26T23:36:44.599Z,7.60
2022-08-26T23:39:14.633Z,8.38
2022-08-26T23:41:42.463Z,8.75
2022-08-26T23:44:10.214Z,8.27
2022-08-26T23:46:37.970Z,8.35
2022-08-26T23:49:06.190Z,7.88
2022-08-26T23:51:51.641Z,8.68
2022-08-26T23:54:21.072Z,8.43
2022-08-26T23:56:48.769Z,8.93
2022-08-26T23:59:16.593Z,9.48
